sensor_id;sensor_type;location;lat;lon;timestamp;temperature;humidity
77523;SHT31;66637;-29.628;-49.938;2024-01-06T00:01:39;23.62;88.65
77523;SHT31;66637;-29.628;-49.938;2024-01-06T00:04:14;23.64;88.69
77523;SHT31;66637;-29.628;-49.938;2024-01-06T00:06:51;23.64;88.79
77523;SHT31;66637;-29.628;-49.938;2024-01-06T00:09:22;23.61;88.92
77523;SHT31;66637;-29.628;-49.938;2024-01-06T00:11:56;23.61;89.06
77523;SHT31;66637;-29.628;-49.938;2024-01-06T00:14:29;23.59;89.34
77523;SHT31;66637;-29.628;-49.938;2024-01-06T00:17:00;23.61;89.36
77523;SHT31;66637;-29.628;-49.938;2024-01-06T00:19:30;23.64;89.43
77523;SHT31;66637;-29.628;-49.938;2024-01-06T00:22:01;23.57;89.56
77523;SHT31;66637;-29.628;-49.938;2024-01-06T00:24:31;23.59;89.72
77523;SHT31;66637;-29.628;-49.938;2024-01-06T00:27:05;23.55;89.74
77523;SHT31;66637;-29.628;-49.938;2024-01-06T00:29:40;23.61;89.86
77523;SHT31;66637;-29.628;-49.938;2024-01-06T00:32:14;23.61;89.99
77523;SHT31;66637;-29.628;-49.938;2024-01-06T00:34:49;23.61;89.96
77523;SHT31;66637;-29.628;-49.938;2024-01-06T00:37:33;23.62;89.83
77523;SHT31;66637;-29.628;-49.938;2024-01-06T00:40:09;23.57;90.26
77523;SHT31;66637;-29.628;-49.938;2024-01-06T00:42:41;23.58;90.25
77523;SHT31;66637;-29.628;-49.938;2024-01-06T00:45:15;23.57;90.26
77523;SHT31;66637;-29.628;-49.938;2024-01-06T00:47:48;23.55;90.51
77523;SHT31;66637;-29.628;-49.938;2024-01-06T00:50:27;23.58;90.60
77523;SHT31;66637;-29.628;-49.938;2024-01-06T00:52:58;23.57;90.75
77523;SHT31;66637;-29.628;-49.938;2024-01-06T00:55:31;23.55;90.85
77523;SHT31;66637;-29.628;-49.938;2024-01-06T00:58:29;23.54;90.73
77523;SHT31;66637;-29.628;-49.938;2024-01-06T01:01:10;23.59;90.85
77523;SHT31;66637;-29.628;-49.938;2024-01-06T01:03:41;23.57;90.89
77523;SHT31;66637;-29.628;-49.938;2024-01-06T01:06:21;23.59;90.93
77523;SHT31;66637;-29.628;-49.938;2024-01-06T01:09:18;23.64;90.85
77523;SHT31;66637;-29.628;-49.938;2024-01-06T01:11:52;23.62;90.93
77523;SHT31;66637;-29.628;-49.938;2024-01-06T01:14:30;23.62;90.94
77523;SHT31;66637;-29.628;-49.938;2024-01-06T01:17:03;23.64;91.04
77523;SHT31;66637;-29.628;-49.938;2024-01-06T01:19:42;23.65;91.02
77523;SHT31;66637;-29.628;-49.938;2024-01-06T01:22:17;23.59;91.13
77523;SHT31;66637;-29.628;-49.938;2024-01-06T01:24:59;23.61;91.10
77523;SHT31;66637;-29.628;-49.938;2024-01-06T01:27:44;23.61;91.41
77523;SHT31;66637;-29.628;-49.938;2024-01-06T01:30:23;23.64;91.40
77523;SHT31;66637;-29.628;-49.938;2024-01-06T01:32:57;23.59;91.40
77523;SHT31;66637;-29.628;-49.938;2024-01-06T01:35:27;23.47;90.80
77523;SHT31;66637;-29.628;-49.938;2024-01-06T01:38:01;23.41;90.58
77523;SHT31;66637;-29.628;-49.938;2024-01-06T01:40:36;23.37;90.45
77523;SHT31;66637;-29.628;-49.938;2024-01-06T01:43:18;23.33;90.58
77523;SHT31;66637;-29.628;-49.938;2024-01-06T01:46:15;23.35;90.49
77523;SHT31;66637;-29.628;-49.938;2024-01-06T01:48:52;23.31;90.47
77523;SHT31;66637;-29.628;-49.938;2024-01-06T01:51:50;23.34;90.40
77523;SHT31;66637;-29.628;-49.938;2024-01-06T01:54:49;23.25;90.35
77523;SHT31;66637;-29.628;-49.938;2024-01-06T01:57:31;23.20;90.39
77523;SHT31;66637;-29.628;-49.938;2024-01-06T02:00:05;23.20;90.39
77523;SHT31;66637;-29.628;-49.938;2024-01-06T02:02:41;23.17;90.44
77523;SHT31;66637;-29.628;-49.938;2024-01-06T02:05:14;23.15;90.49
77523;SHT31;66637;-29.628;-49.938;2024-01-06T02:11:54;23.13;90.57
77523;SHT31;66637;-29.628;-49.938;2024-01-06T02:14:39;23.11;90.51
77523;SHT31;66637;-29.628;-49.938;2024-01-06T02:17:12;23.11;90.54
77523;SHT31;66637;-29.628;-49.938;2024-01-06T02:19:43;23.11;90.59
77523;SHT31;66637;-29.628;-49.938;2024-01-06T02:25:33;23.17;90.38
77523;SHT31;66637;-29.628;-49.938;2024-01-06T02:28:40;23.10;89.93
77523;SHT31;66637;-29.628;-49.938;2024-01-06T02:31:14;23.06;89.66
77523;SHT31;66637;-29.628;-49.938;2024-01-06T02:34:04;23.03;89.71
77523;SHT31;66637;-29.628;-49.938;2024-01-06T02:36:41;22.97;89.57
77523;SHT31;66637;-29.628;-49.938;2024-01-06T02:39:24;22.94;89.59
77523;SHT31;66637;-29.628;-49.938;2024-01-06T02:52:58;22.79;89.90
77523;SHT31;66637;-29.628;-49.938;2024-01-06T02:55:30;22.72;89.93
77523;SHT31;66637;-29.628;-49.938;2024-01-06T02:58:02;22.73;89.97
77523;SHT31;66637;-29.628;-49.938;2024-01-06T03:00:35;22.72;90.00
77523;SHT31;66637;-29.628;-49.938;2024-01-06T03:07:15;22.70;90.09
77523;SHT31;66637;-29.628;-49.938;2024-01-06T03:09:45;22.69;90.15
77523;SHT31;66637;-29.628;-49.938;2024-01-06T03:12:16;22.72;90.26
77523;SHT31;66637;-29.628;-49.938;2024-01-06T03:15:31;22.73;90.41
77523;SHT31;66637;-29.628;-49.938;2024-01-06T03:18:17;22.74;90.28
77523;SHT31;66637;-29.628;-49.938;2024-01-06T03:20:52;22.66;90.14
77523;SHT31;66637;-29.628;-49.938;2024-01-06T03:23:39;22.66;90.12
77523;SHT31;66637;-29.628;-49.938;2024-01-06T03:26:40;22.67;90.15
77523;SHT31;66637;-29.628;-49.938;2024-01-06T03:29:35;22.69;90.04
77523;SHT31;66637;-29.628;-49.938;2024-01-06T03:32:11;22.64;90.03
77523;SHT31;66637;-29.628;-49.938;2024-01-06T03:36:08;22.66;90.10
77523;SHT31;66637;-29.628;-49.938;2024-01-06T03:38:35;22.59;90.09
77523;SHT31;66637;-29.628;-49.938;2024-01-06T03:42:24;22.60;90.17
77523;SHT31;66637;-29.628;-49.938;2024-01-06T03:45:00;22.55;90.30
77523;SHT31;66637;-29.628;-49.938;2024-01-06T03:47:36;22.55;90.36
77523;SHT31;66637;-29.628;-49.938;2024-01-06T03:50:06;22.56;90.53
77523;SHT31;66637;-29.628;-49.938;2024-01-06T03:52:36;22.53;90.56
77523;SHT31;66637;-29.628;-49.938;2024-01-06T03:55:06;22.51;90.68
77523;SHT31;66637;-29.628;-49.938;2024-01-06T03:57:37;22.52;90.60
77523;SHT31;66637;-29.628;-49.938;2024-01-06T04:00:08;22.53;90.69
77523;SHT31;66637;-29.628;-49.938;2024-01-06T04:02:39;22.48;90.66
77523;SHT31;66637;-29.628;-49.938;2024-01-06T04:05:10;22.46;90.69
77523;SHT31;66637;-29.628;-49.938;2024-01-06T04:07:40;22.45;90.80
77523;SHT31;66637;-29.628;-49.938;2024-01-06T04:10:32;22.45;90.89
77523;SHT31;66637;-29.628;-49.938;2024-01-06T04:17:49;22.46;91.03
77523;SHT31;66637;-29.628;-49.938;2024-01-06T04:20:48;22.49;90.82
77523;SHT31;66637;-29.628;-49.938;2024-01-06T04:23:19;22.42;91.05
77523;SHT31;66637;-29.628;-49.938;2024-01-06T04:26:09;22.43;91.15
77523;SHT31;66637;-29.628;-49.938;2024-01-06T04:28:55;22.43;91.22
77523;SHT31;66637;-29.628;-49.938;2024-01-06T04:32:12;22.45;91.22
77523;SHT31;66637;-29.628;-49.938;2024-01-06T04:35:13;22.46;91.31
77523;SHT31;66637;-29.628;-49.938;2024-01-06T04:42:17;22.53;91.40
77523;SHT31;66637;-29.628;-49.938;2024-01-06T04:45:16;22.57;91.40
77523;SHT31;66637;-29.628;-49.938;2024-01-06T04:48:24;22.60;91.42
77523;SHT31;66637;-29.628;-49.938;2024-01-06T04:51:21;22.66;91.36
77523;SHT31;66637;-29.628;-49.938;2024-01-06T04:54:01;22.69;91.61
77523;SHT31;66637;-29.628;-49.938;2024-01-06T04:57:00;22.76;91.61
77523;SHT31;66637;-29.628;-49.938;2024-01-06T04:59:39;22.77;91.73
77523;SHT31;66637;-29.628;-49.938;2024-01-06T05:02:37;22.80;91.78
77523;SHT31;66637;-29.628;-49.938;2024-01-06T05:06:06;22.86;91.71
77523;SHT31;66637;-29.628;-49.938;2024-01-06T05:08:43;22.86;91.79
77523;SHT31;66637;-29.628;-49.938;2024-01-06T05:11:19;22.87;91.86
77523;SHT31;66637;-29.628;-49.938;2024-01-06T05:13:50;22.84;91.80
77523;SHT31;66637;-29.628;-49.938;2024-01-06T05:16:23;22.87;91.85
77523;SHT31;66637;-29.628;-49.938;2024-01-06T05:18:56;22.90;91.79
77523;SHT31;66637;-29.628;-49.938;2024-01-06T05:21:36;22.89;91.88
77523;SHT31;66637;-29.628;-49.938;2024-01-06T05:24:07;22.86;91.80
77523;SHT31;66637;-29.628;-49.938;2024-01-06T05:26:43;22.82;91.84
77523;SHT31;66637;-29.628;-49.938;2024-01-06T05:29:18;22.90;91.69
77523;SHT31;66637;-29.628;-49.938;2024-01-06T05:32:03;22.80;91.70
77523;SHT31;66637;-29.628;-49.938;2024-01-06T05:35:01;22.76;91.49
77523;SHT31;66637;-29.628;-49.938;2024-01-06T05:37:42;22.70;91.49
77523;SHT31;66637;-29.628;-49.938;2024-01-06T05:40:18;22.70;91.49
77523;SHT31;66637;-29.628;-49.938;2024-01-06T05:42:51;22.73;91.40
77523;SHT31;66637;-29.628;-49.938;2024-01-06T05:45:26;22.73;91.57
77523;SHT31;66637;-29.628;-49.938;2024-01-06T05:47:59;22.79;91.80
77523;SHT31;66637;-29.628;-49.938;2024-01-06T05:50:29;22.80;91.83
77523;SHT31;66637;-29.628;-49.938;2024-01-06T05:53:00;22.79;91.84
77523;SHT31;66637;-29.628;-49.938;2024-01-06T05:55:29;22.79;92.00
77523;SHT31;66637;-29.628;-49.938;2024-01-06T05:57:59;22.80;91.88
77523;SHT31;66637;-29.628;-49.938;2024-01-06T06:00:31;22.79;92.02
77523;SHT31;66637;-29.628;-49.938;2024-01-06T06:03:02;22.77;92.01
77523;SHT31;66637;-29.628;-49.938;2024-01-06T06:05:32;22.74;92.04
77523;SHT31;66637;-29.628;-49.938;2024-01-06T06:08:02;22.74;92.09
77523;SHT31;66637;-29.628;-49.938;2024-01-06T06:10:32;22.72;92.20
77523;SHT31;66637;-29.628;-49.938;2024-01-06T06:13:11;22.69;92.25
77523;SHT31;66637;-29.628;-49.938;2024-01-06T06:15:41;22.70;92.34
77523;SHT31;66637;-29.628;-49.938;2024-01-06T06:18:11;22.70;92.19
77523;SHT31;66637;-29.628;-49.938;2024-01-06T06:20:42;22.67;92.37
77523;SHT31;66637;-29.628;-49.938;2024-01-06T06:23:14;22.66;92.44
77523;SHT31;66637;-29.628;-49.938;2024-01-06T06:25:45;22.66;92.48
77523;SHT31;66637;-29.628;-49.938;2024-01-06T06:28:15;22.67;92.43
77523;SHT31;66637;-29.628;-49.938;2024-01-06T06:30:45;22.60;92.26
77523;SHT31;66637;-29.628;-49.938;2024-01-06T06:33:16;22.57;92.10
77523;SHT31;66637;-29.628;-49.938;2024-01-06T06:35:46;22.57;92.12
77523;SHT31;66637;-29.628;-49.938;2024-01-06T06:38:18;22.52;92.00
77523;SHT31;66637;-29.628;-49.938;2024-01-06T06:40:50;22.51;91.88
77523;SHT31;66637;-29.628;-49.938;2024-01-06T06:43:19;22.49;91.78
77523;SHT31;66637;-29.628;-49.938;2024-01-06T06:45:50;22.48;91.73
77523;SHT31;66637;-29.628;-49.938;2024-01-06T06:48:25;22.46;91.77
77523;SHT31;66637;-29.628;-49.938;2024-01-06T06:50:56;22.45;91.73
77523;SHT31;66637;-29.628;-49.938;2024-01-06T06:53:27;22.46;91.74
77523;SHT31;66637;-29.628;-49.938;2024-01-06T06:55:57;22.46;91.75
77523;SHT31;66637;-29.628;-49.938;2024-01-06T06:58:28;22.43;91.83
77523;SHT31;66637;-29.628;-49.938;2024-01-06T07:00:58;22.39;91.86
77523;SHT31;66637;-29.628;-49.938;2024-01-06T07:03:28;22.38;91.85
77523;SHT31;66637;-29.628;-49.938;2024-01-06T07:05:58;22.36;91.81
77523;SHT31;66637;-29.628;-49.938;2024-01-06T07:08:29;22.38;91.82
77523;SHT31;66637;-29.628;-49.938;2024-01-06T07:11:00;22.36;91.84
77523;SHT31;66637;-29.628;-49.938;2024-01-06T07:13:30;22.36;91.71
77523;SHT31;66637;-29.628;-49.938;2024-01-06T07:16:00;22.33;91.70
77523;SHT31;66637;-29.628;-49.938;2024-01-06T07:18:45;22.33;91.76
77523;SHT31;66637;-29.628;-49.938;2024-01-06T07:21:16;22.35;91.89
77523;SHT31;66637;-29.628;-49.938;2024-01-06T07:23:48;22.32;91.92
77523;SHT31;66637;-29.628;-49.938;2024-01-06T07:26:18;22.31;91.92
77523;SHT31;66637;-29.628;-49.938;2024-01-06T07:28:48;22.32;91.86
77523;SHT31;66637;-29.628;-49.938;2024-01-06T07:31:18;22.28;91.89
77523;SHT31;66637;-29.628;-49.938;2024-01-06T07:33:48;22.31;91.91
77523;SHT31;66637;-29.628;-49.938;2024-01-06T07:36:18;22.28;91.99
77523;SHT31;66637;-29.628;-49.938;2024-01-06T07:38:48;22.28;91.99
77523;SHT31;66637;-29.628;-49.938;2024-01-06T07:41:19;22.25;92.02
77523;SHT31;66637;-29.628;-49.938;2024-01-06T07:43:50;22.25;92.13
77523;SHT31;66637;-29.628;-49.938;2024-01-06T07:46:23;22.29;92.12
77523;SHT31;66637;-29.628;-49.938;2024-01-06T07:48:53;22.29;92.16
77523;SHT31;66637;-29.628;-49.938;2024-01-06T07:51:24;22.28;92.12
77523;SHT31;66637;-29.628;-49.938;2024-01-06T07:53:54;22.29;92.14
77523;SHT31;66637;-29.628;-49.938;2024-01-06T07:56:25;22.29;92.19
77523;SHT31;66637;-29.628;-49.938;2024-01-06T07:58:55;22.23;92.19
77523;SHT31;66637;-29.628;-49.938;2024-01-06T08:01:25;22.25;92.16
77523;SHT31;66637;-29.628;-49.938;2024-01-06T08:03:55;22.28;92.24
77523;SHT31;66637;-29.628;-49.938;2024-01-06T08:06:26;22.28;92.20
77523;SHT31;66637;-29.628;-49.938;2024-01-06T08:08:57;22.33;92.21
77523;SHT31;66637;-29.628;-49.938;2024-01-06T08:11:27;22.39;92.18
77523;SHT31;66637;-29.628;-49.938;2024-01-06T08:13:57;22.38;92.07
77523;SHT31;66637;-29.628;-49.938;2024-01-06T08:16:27;22.39;92.00
77523;SHT31;66637;-29.628;-49.938;2024-01-06T08:18:57;22.41;92.00
77523;SHT31;66637;-29.628;-49.938;2024-01-06T08:21:27;22.45;92.01
77523;SHT31;66637;-29.628;-49.938;2024-01-06T08:23:57;22.45;92.02
77523;SHT31;66637;-29.628;-49.938;2024-01-06T08:26:27;22.42;91.81
77523;SHT31;66637;-29.628;-49.938;2024-01-06T08:28:57;22.43;91.88
77523;SHT31;66637;-29.628;-49.938;2024-01-06T08:31:27;22.46;91.85
77523;SHT31;66637;-29.628;-49.938;2024-01-06T08:33:58;22.46;91.89
77523;SHT31;66637;-29.628;-49.938;2024-01-06T08:36:28;22.45;91.96
77523;SHT31;66637;-29.628;-49.938;2024-01-06T08:38:58;22.46;92.02
77523;SHT31;66637;-29.628;-49.938;2024-01-06T08:41:28;22.49;91.98
77523;SHT31;66637;-29.628;-49.938;2024-01-06T08:43:58;22.45;91.93
77523;SHT31;66637;-29.628;-49.938;2024-01-06T08:46:28;22.46;91.80
77523;SHT31;66637;-29.628;-49.938;2024-01-06T08:49:00;22.46;91.80
77523;SHT31;66637;-29.628;-49.938;2024-01-06T08:51:30;22.49;91.57
77523;SHT31;66637;-29.628;-49.938;2024-01-06T08:54:01;22.56;91.49
77523;SHT31;66637;-29.628;-49.938;2024-01-06T08:56:34;22.60;91.35
77523;SHT31;66637;-29.628;-49.938;2024-01-06T08:59:19;22.56;91.39
77523;SHT31;66637;-29.628;-49.938;2024-01-06T09:02:22;22.56;91.26
77523;SHT31;66637;-29.628;-49.938;2024-01-06T09:05:08;22.55;91.30
77523;SHT31;66637;-29.628;-49.938;2024-01-06T09:07:39;22.56;91.40
77523;SHT31;66637;-29.628;-49.938;2024-01-06T09:10:09;22.51;91.35
77523;SHT31;66637;-29.628;-49.938;2024-01-06T09:12:40;22.52;91.39
77523;SHT31;66637;-29.628;-49.938;2024-01-06T09:15:11;22.53;91.43
77523;SHT31;66637;-29.628;-49.938;2024-01-06T09:17:41;22.52;91.44
77523;SHT31;66637;-29.628;-49.938;2024-01-06T09:20:12;22.55;91.49
77523;SHT31;66637;-29.628;-49.938;2024-01-06T09:22:43;22.56;91.43
77523;SHT31;66637;-29.628;-49.938;2024-01-06T09:25:13;22.60;91.25
77523;SHT31;66637;-29.628;-49.938;2024-01-06T09:27:44;22.67;91.09
77523;SHT31;66637;-29.628;-49.938;2024-01-06T09:30:14;22.72;90.61
77523;SHT31;66637;-29.628;-49.938;2024-01-06T09:32:44;22.82;90.52
77523;SHT31;66637;-29.628;-49.938;2024-01-06T09:35:14;22.90;90.02
77523;SHT31;66637;-29.628;-49.938;2024-01-06T09:37:44;22.94;89.84
77523;SHT31;66637;-29.628;-49.938;2024-01-06T09:40:26;22.90;89.83
77523;SHT31;66637;-29.628;-49.938;2024-01-06T09:42:56;22.93;89.58
77523;SHT31;66637;-29.628;-49.938;2024-01-06T09:45:29;23.00;89.38
77523;SHT31;66637;-29.628;-49.938;2024-01-06T09:48:14;23.23;88.80
77523;SHT31;66637;-29.628;-49.938;2024-01-06T09:50:48;23.57;88.02
77523;SHT31;66637;-29.628;-49.938;2024-01-06T09:53:19;23.61;87.86
77523;SHT31;66637;-29.628;-49.938;2024-01-06T09:55:51;23.65;87.72
77523;SHT31;66637;-29.628;-49.938;2024-01-06T09:58:22;24.19;86.65
77523;SHT31;66637;-29.628;-49.938;2024-01-06T10:00:52;24.52;85.62
77523;SHT31;66637;-29.628;-49.938;2024-01-06T10:03:24;25.18;83.52
77523;SHT31;66637;-29.628;-49.938;2024-01-06T10:05:56;28.14;76.00
77523;SHT31;66637;-29.628;-49.938;2024-01-06T10:08:30;28.69;73.20
77523;SHT31;66637;-29.628;-49.938;2024-01-06T10:11:04;29.25;71.58
77523;SHT31;66637;-29.628;-49.938;2024-01-06T10:13:35;29.98;69.38
77523;SHT31;66637;-29.628;-49.938;2024-01-06T10:16:13;30.21;69.03
77523;SHT31;66637;-29.628;-49.938;2024-01-06T10:18:44;30.01;69.61
77523;SHT31;66637;-29.628;-49.938;2024-01-06T10:21:25;30.08;70.25
77523;SHT31;66637;-29.628;-49.938;2024-01-06T10:23:56;29.81;70.13
77523;SHT31;66637;-29.628;-49.938;2024-01-06T10:26:27;29.19;72.59
77523;SHT31;66637;-29.628;-49.938;2024-01-06T10:28:59;28.71;73.81
77523;SHT31;66637;-29.628;-49.938;2024-01-06T10:31:33;27.55;77.05
77523;SHT31;66637;-29.628;-49.938;2024-01-06T10:34:05;27.27;78.15
77523;SHT31;66637;-29.628;-49.938;2024-01-06T10:36:36;27.01;78.39
77523;SHT31;66637;-29.628;-49.938;2024-01-06T10:39:07;27.85;76.16
77523;SHT31;66637;-29.628;-49.938;2024-01-06T10:41:41;28.06;74.75
77523;SHT31;66637;-29.628;-49.938;2024-01-06T10:44:13;28.13;75.71
77523;SHT31;66637;-29.628;-49.938;2024-01-06T10:46:44;28.00;75.83
77523;SHT31;66637;-29.628;-49.938;2024-01-06T10:49:17;28.01;76.04
77523;SHT31;66637;-29.628;-49.938;2024-01-06T10:51:52;27.92;76.01
77523;SHT31;66637;-29.628;-49.938;2024-01-06T10:54:26;28.16;76.05
77523;SHT31;66637;-29.628;-49.938;2024-01-06T10:56:59;28.34;76.60
77523;SHT31;66637;-29.628;-49.938;2024-01-06T10:59:31;28.39;76.04
77523;SHT31;66637;-29.628;-49.938;2024-01-06T11:02:04;28.55;76.06
77523;SHT31;66637;-29.628;-49.938;2024-01-06T11:04:36;28.62;75.72
77523;SHT31;66637;-29.628;-49.938;2024-01-06T11:07:07;29.14;74.86
77523;SHT31;66637;-29.628;-49.938;2024-01-06T11:09:40;29.45;73.63
77523;SHT31;66637;-29.628;-49.938;2024-01-06T11:12:14;29.15;73.71
77523;SHT31;66637;-29.628;-49.938;2024-01-06T11:14:46;29.49;74.02
77523;SHT31;66637;-29.628;-49.938;2024-01-06T11:17:51;29.62;73.60
77523;SHT31;66637;-29.628;-49.938;2024-01-06T11:20:26;29.76;73.51
77523;SHT31;66637;-29.628;-49.938;2024-01-06T11:23:19;29.69;73.14
77523;SHT31;66637;-29.628;-49.938;2024-01-06T11:25:53;29.66;73.30
77523;SHT31;66637;-29.628;-49.938;2024-01-06T11:28:25;28.72;75.49
77523;SHT31;66637;-29.628;-49.938;2024-01-06T11:31:09;29.27;75.11
77523;SHT31;66637;-29.628;-49.938;2024-01-06T11:33:44;28.92;75.24
77523;SHT31;66637;-29.628;-49.938;2024-01-06T11:36:20;29.04;74.86
77523;SHT31;66637;-29.628;-49.938;2024-01-06T11:38:51;29.47;74.87
77523;SHT31;66637;-29.628;-49.938;2024-01-06T11:41:50;29.81;72.45
77523;SHT31;66637;-29.628;-49.938;2024-01-06T11:44:21;29.86;73.17
77523;SHT31;66637;-29.628;-49.938;2024-01-06T11:46:56;29.59;72.86
77523;SHT31;66637;-29.628;-49.938;2024-01-06T11:49:28;29.77;73.60
77523;SHT31;66637;-29.628;-49.938;2024-01-06T11:52:00;29.74;73.27
77523;SHT31;66637;-29.628;-49.938;2024-01-06T11:54:32;29.86;73.30
77523;SHT31;66637;-29.628;-49.938;2024-01-06T11:57:03;29.66;73.45
77523;SHT31;66637;-29.628;-49.938;2024-01-06T11:59:36;29.87;74.09
77523;SHT31;66637;-29.628;-49.938;2024-01-06T12:02:18;29.81;73.66
77523;SHT31;66637;-29.628;-49.938;2024-01-06T12:04:50;29.87;73.66
77523;SHT31;66637;-29.628;-49.938;2024-01-06T12:07:22;30.32;73.39
77523;SHT31;66637;-29.628;-49.938;2024-01-06T12:10:01;30.18;73.37
77523;SHT31;66637;-29.628;-49.938;2024-01-06T12:12:32;30.06;73.60
77523;SHT31;66637;-29.628;-49.938;2024-01-06T12:15:02;30.20;72.82
77523;SHT31;66637;-29.628;-49.938;2024-01-06T12:17:32;30.16;73.00
77523;SHT31;66637;-29.628;-49.938;2024-01-06T12:20:02;30.23;73.29
77523;SHT31;66637;-29.628;-49.938;2024-01-06T12:22:38;30.16;73.12
77523;SHT31;66637;-29.628;-49.938;2024-01-06T12:25:10;30.28;73.33
77523;SHT31;66637;-29.628;-49.938;2024-01-06T12:27:42;30.31;73.37
77523;SHT31;66637;-29.628;-49.938;2024-01-06T12:30:14;29.27;75.39
77523;SHT31;66637;-29.628;-49.938;2024-01-06T12:32:50;28.95;76.72
77523;SHT31;66637;-29.628;-49.938;2024-01-06T12:35:22;29.06;76.02
77523;SHT31;66637;-29.628;-49.938;2024-01-06T12:37:53;29.46;75.10
77523;SHT31;66637;-29.628;-49.938;2024-01-06T12:40:23;29.97;74.07
77523;SHT31;66637;-29.628;-49.938;2024-01-06T12:42:53;30.18;73.89
77523;SHT31;66637;-29.628;-49.938;2024-01-06T12:45:29;30.31;72.21
77523;SHT31;66637;-29.628;-49.938;2024-01-06T12:48:00;30.01;73.10
77523;SHT31;66637;-29.628;-49.938;2024-01-06T12:50:31;29.91;73.77
77523;SHT31;66637;-29.628;-49.938;2024-01-06T12:53:01;30.21;73.71
77523;SHT31;66637;-29.628;-49.938;2024-01-06T12:55:32;30.20;72.46
77523;SHT31;66637;-29.628;-49.938;2024-01-06T12:58:02;30.03;72.86
77523;SHT31;66637;-29.628;-49.938;2024-01-06T13:00:33;29.78;73.41
77523;SHT31;66637;-29.628;-49.938;2024-01-06T13:03:06;29.80;74.33
77523;SHT31;66637;-29.628;-49.938;2024-01-06T13:05:36;29.77;74.42
77523;SHT31;66637;-29.628;-49.938;2024-01-06T13:08:11;29.90;73.95
77523;SHT31;66637;-29.628;-49.938;2024-01-06T13:10:45;29.86;74.56
77523;SHT31;66637;-29.628;-49.938;2024-01-06T13:13:20;29.94;73.79
77523;SHT31;66637;-29.628;-49.938;2024-01-06T13:15:53;30.00;73.88
77523;SHT31;66637;-29.628;-49.938;2024-01-06T13:18:35;30.01;73.50
77523;SHT31;66637;-29.628;-49.938;2024-01-06T13:21:10;29.78;74.63
77523;SHT31;66637;-29.628;-49.938;2024-01-06T13:23:41;29.98;74.12
77523;SHT31;66637;-29.628;-49.938;2024-01-06T13:26:11;29.98;73.34
77523;SHT31;66637;-29.628;-49.938;2024-01-06T13:28:45;29.76;74.19
77523;SHT31;66637;-29.628;-49.938;2024-01-06T13:31:21;29.52;74.44
77523;SHT31;66637;-29.628;-49.938;2024-01-06T13:35:05;30.01;74.44
77523;SHT31;66637;-29.628;-49.938;2024-01-06T13:37:50;29.67;74.83
77523;SHT31;66637;-29.628;-49.938;2024-01-06T13:40:30;29.80;75.48
77523;SHT31;66637;-29.628;-49.938;2024-01-06T13:43:03;29.70;74.31
77523;SHT31;66637;-29.628;-49.938;2024-01-06T13:45:48;29.93;73.61
77523;SHT31;66637;-29.628;-49.938;2024-01-06T13:48:22;29.80;74.00
77523;SHT31;66637;-29.628;-49.938;2024-01-06T13:50:58;29.69;74.56
77523;SHT31;66637;-29.628;-49.938;2024-01-06T13:53:32;29.62;74.60
77523;SHT31;66637;-29.628;-49.938;2024-01-06T13:56:07;29.57;74.60
77523;SHT31;66637;-29.628;-49.938;2024-01-06T13:59:08;29.86;75.23
77523;SHT31;66637;-29.628;-49.938;2024-01-06T14:01:44;30.01;74.25
77523;SHT31;66637;-29.628;-49.938;2024-01-06T14:04:16;29.97;73.96
77523;SHT31;66637;-29.628;-49.938;2024-01-06T14:07:02;29.96;74.80
77523;SHT31;66637;-29.628;-49.938;2024-01-06T14:09:50;29.94;74.28
77523;SHT31;66637;-29.628;-49.938;2024-01-06T14:12:33;29.78;74.72
77523;SHT31;66637;-29.628;-49.938;2024-01-06T14:15:08;29.73;74.55
77523;SHT31;66637;-29.628;-49.938;2024-01-06T14:17:44;29.86;73.67
77523;SHT31;66637;-29.628;-49.938;2024-01-06T14:20:29;29.84;73.84
77523;SHT31;66637;-29.628;-49.938;2024-01-06T14:23:13;29.78;74.06
77523;SHT31;66637;-29.628;-49.938;2024-01-06T14:26:03;29.81;75.42
77523;SHT31;66637;-29.628;-49.938;2024-01-06T14:28:44;29.84;73.68
77523;SHT31;66637;-29.628;-49.938;2024-01-06T14:35:14;29.72;74.70
77523;SHT31;66637;-29.628;-49.938;2024-01-06T14:38:01;29.77;74.71
77523;SHT31;66637;-29.628;-49.938;2024-01-06T14:40:45;29.93;75.25
77523;SHT31;66637;-29.628;-49.938;2024-01-06T14:43:42;29.91;74.59
77523;SHT31;66637;-29.628;-49.938;2024-01-06T14:46:23;29.94;74.66
77523;SHT31;66637;-29.628;-49.938;2024-01-06T14:49:00;29.81;74.78
77523;SHT31;66637;-29.628;-49.938;2024-01-06T14:51:48;29.70;75.10
77523;SHT31;66637;-29.628;-49.938;2024-01-06T14:54:59;29.73;76.00
77523;SHT31;66637;-29.628;-49.938;2024-01-06T15:02:01;30.21;75.03
77523;SHT31;66637;-29.628;-49.938;2024-01-06T15:04:55;30.18;73.89
77523;SHT31;66637;-29.628;-49.938;2024-01-06T15:08:12;29.97;74.69
77523;SHT31;66637;-29.628;-49.938;2024-01-06T15:10:50;29.63;75.16
77523;SHT31;66637;-29.628;-49.938;2024-01-06T15:13:26;29.74;74.94
77523;SHT31;66637;-29.628;-49.938;2024-01-06T15:16:21;29.70;75.00
77523;SHT31;66637;-29.628;-49.938;2024-01-06T15:18:58;29.67;74.97
77523;SHT31;66637;-29.628;-49.938;2024-01-06T15:21:55;29.90;74.87
77523;SHT31;66637;-29.628;-49.938;2024-01-06T15:25:17;29.88;74.65
77523;SHT31;66637;-29.628;-49.938;2024-01-06T15:27:54;29.78;74.65
77523;SHT31;66637;-29.628;-49.938;2024-01-06T15:30:30;29.94;74.58
77523;SHT31;66637;-29.628;-49.938;2024-01-06T15:33:02;29.96;74.33
77523;SHT31;66637;-29.628;-49.938;2024-01-06T15:35:33;29.81;75.17
77523;SHT31;66637;-29.628;-49.938;2024-01-06T15:38:14;29.86;74.82
77523;SHT31;66637;-29.628;-49.938;2024-01-06T15:44:04;29.73;74.61
77523;SHT31;66637;-29.628;-49.938;2024-01-06T15:46:49;30.14;74.02
77523;SHT31;66637;-29.628;-49.938;2024-01-06T15:49:24;30.03;73.97
77523;SHT31;66637;-29.628;-49.938;2024-01-06T15:52:01;30.10;73.82
77523;SHT31;66637;-29.628;-49.938;2024-01-06T15:54:35;29.86;73.90
77523;SHT31;66637;-29.628;-49.938;2024-01-06T15:57:09;29.88;73.98
77523;SHT31;66637;-29.628;-49.938;2024-01-06T15:59:41;29.97;74.66
77523;SHT31;66637;-29.628;-49.938;2024-01-06T16:02:13;30.01;73.63
77523;SHT31;66637;-29.628;-49.938;2024-01-06T16:04:43;30.00;73.74
77523;SHT31;66637;-29.628;-49.938;2024-01-06T16:07:16;29.90;74.51
77523;SHT31;66637;-29.628;-49.938;2024-01-06T16:09:50;29.84;74.35
77523;SHT31;66637;-29.628;-49.938;2024-01-06T16:12:23;29.78;74.64
77523;SHT31;66637;-29.628;-49.938;2024-01-06T16:15:01;29.86;75.60
77523;SHT31;66637;-29.628;-49.938;2024-01-06T16:17:37;29.73;74.57
77523;SHT31;66637;-29.628;-49.938;2024-01-06T16:20:29;29.66;76.43
77523;SHT31;66637;-29.628;-49.938;2024-01-06T16:26:00;29.81;74.31
77523;SHT31;66637;-29.628;-49.938;2024-01-06T16:28:35;29.76;74.32
77523;SHT31;66637;-29.628;-49.938;2024-01-06T16:31:12;29.70;74.75
77523;SHT31;66637;-29.628;-49.938;2024-01-06T16:33:55;29.81;74.49